createdAt,value
2019-03-10T00:00:50.911Z,5.53
2019-03-10T00:03:22.477Z,6.90
2019-03-10T00:05:52.430Z,6.57
2019-03-10T00:08:22.364Z,7.23
2019-03-10T00:10:52.914Z,6.07
2019-03-10T00:13:24.639Z,6.60
2019-03-10T00:15:54.589Z,6.30
2019-03-10T00:18:24.532Z,5.67
2019-03-10T00:20:54.539Z,6.97
2019-03-10T00:23:25.359Z,6.63
2019-03-10T00:25:55.336Z,5.20
2019-03-10T00:28:27.362Z,6.20
2019-03-10T00:31:04.522Z,5.83
2019-03-10T00:33:34.796Z,6.70
2019-03-10T00:36:04.719Z,5.77
2019-03-10T00:38:47.410Z,6.00
2019-03-10T00:42:07.264Z,6.10
2019-03-10T00:45:32.771Z,5.37
2019-03-10T00:48:39.417Z,5.50
2019-03-10T00:51:45.553Z,5.60
2019-03-10T00:54:15.956Z,5.70
2019-03-10T00:56:45.886Z,5.80
2019-03-10T00:59:15.829Z,5.93
2019-03-10T01:01:45.697Z,5.70
2019-03-10T01:04:15.673Z,5.50
2019-03-10T01:06:45.615Z,5.20
2019-03-10T01:09:15.652Z,4.23
2019-03-10T01:11:45.915Z,5.90
2019-03-10T01:14:15.863Z,5.00
2019-03-10T01:16:47.455Z,5.47
2019-03-10T01:19:19.019Z,4.80
2019-03-10T01:21:49.992Z,5.47
2019-03-10T01:24:19.959Z,5.23
2019-03-10T01:26:53.486Z,4.80
2019-03-10T01:29:23.580Z,5.27
2019-03-10T01:32:13.010Z,4.73
2019-03-10T01:34:52.682Z,5.00
2019-03-10T01:37:25.758Z,5.03
2019-03-10T01:39:56.115Z,5.27
2019-03-10T01:42:25.914Z,4.93
2019-03-10T01:44:55.882Z,6.33
2019-03-10T01:47:25.769Z,4.67
2019-03-10T01:49:55.699Z,4.10
2019-03-10T01:52:25.918Z,5.30
2019-03-10T01:54:56.216Z,4.77
2019-03-10T01:57:26.392Z,4.33
2019-03-10T01:59:56.328Z,4.53
2019-03-10T02:02:26.184Z,4.50
2019-03-10T02:04:56.327Z,5.27
2019-03-10T02:07:26.565Z,4.47
2019-03-10T02:09:56.506Z,3.83
2019-03-10T02:12:27.393Z,4.60
2019-03-10T02:14:57.318Z,4.63
2019-03-10T02:17:27.166Z,4.10
2019-03-10T02:19:57.124Z,5.33
2019-03-10T02:22:27.015Z,4.67
2019-03-10T02:24:57.030Z,4.97
2019-03-10T02:27:27.232Z,4.60
2019-03-10T02:29:58.310Z,4.90
2019-03-10T02:32:28.594Z,4.53
2019-03-10T02:34:58.462Z,4.40
2019-03-10T02:37:28.325Z,5.00
2019-03-10T02:39:59.224Z,4.90
2019-03-10T02:42:29.232Z,4.70
2019-03-10T02:44:59.212Z,4.67
2019-03-10T02:47:29.492Z,5.20
2019-03-10T02:50:00.269Z,4.33
2019-03-10T02:52:30.292Z,3.77
2019-03-10T02:55:00.399Z,4.43
2019-03-10T02:57:30.690Z,4.80
2019-03-10T03:00:00.548Z,5.07
2019-03-10T03:02:32.090Z,5.00
2019-03-10T03:05:03.407Z,4.67
2019-03-10T03:07:34.311Z,4.63
2019-03-10T03:10:04.873Z,4.50
2019-03-10T03:12:35.086Z,3.80
2019-03-10T03:15:05.159Z,4.77
2019-03-10T03:17:35.044Z,5.07
2019-03-10T03:20:05.465Z,5.10
2019-03-10T03:22:35.428Z,4.27
2019-03-10T03:25:06.134Z,4.83
2019-03-10T03:27:36.092Z,4.77
2019-03-10T03:30:06.562Z,4.17
2019-03-10T03:32:36.886Z,4.70
2019-03-10T03:35:34.638Z,4.70
2019-03-10T03:38:04.615Z,3.57
2019-03-10T03:40:34.521Z,4.10
2019-03-10T03:43:04.749Z,3.80
2019-03-10T03:45:34.603Z,4.37
2019-03-10T03:48:05.810Z,3.47
2019-03-10T03:50:35.693Z,3.40
2019-03-10T03:53:05.762Z,3.20
2019-03-10T03:55:35.887Z,3.33
2019-03-10T03:58:05.763Z,2.93
2019-03-10T04:00:36.051Z,3.47
2019-03-10T04:03:06.049Z,3.10
2019-03-10T04:05:35.993Z,2.80
2019-03-10T04:08:06.215Z,2.83
2019-03-10T04:10:37.367Z,2.57
2019-03-10T04:13:07.948Z,2.97
2019-03-10T04:15:37.800Z,2.90
2019-03-10T04:18:07.668Z,2.63
2019-03-10T04:20:37.554Z,2.27
2019-03-10T04:23:08.117Z,2.73
2019-03-10T04:25:38.068Z,2.63
2019-03-10T04:28:07.938Z,2.40
2019-03-10T04:30:37.922Z,2.40
2019-03-10T04:33:07.797Z,2.97
2019-03-10T04:35:38.649Z,2.70
2019-03-10T04:38:08.945Z,3.03
2019-03-10T04:40:38.861Z,2.53
2019-03-10T04:43:08.640Z,2.43
2019-03-10T04:45:38.597Z,2.83
2019-03-10T04:48:11.299Z,2.20
2019-03-10T04:50:41.271Z,2.97
2019-03-10T04:53:11.188Z,3.53
2019-03-10T04:55:54.980Z,2.40
2019-03-10T04:58:24.746Z,2.83
2019-03-10T05:00:56.556Z,2.30
2019-03-10T05:03:26.401Z,2.83
2019-03-10T05:05:56.719Z,2.17
2019-03-10T05:08:26.579Z,2.67
2019-03-10T05:10:58.101Z,3.43
2019-03-10T05:13:28.676Z,2.83
2019-03-10T05:15:59.043Z,3.10
2019-03-10T05:18:28.951Z,3.13
2019-03-10T05:20:59.996Z,2.93
2019-03-10T05:23:40.899Z,3.10
2019-03-10T05:26:11.063Z,3.63
2019-03-10T05:28:46.381Z,3.63
2019-03-10T05:31:16.504Z,3.77
2019-03-10T05:33:46.467Z,2.70
2019-03-10T05:36:16.401Z,3.30
2019-03-10T05:38:46.645Z,2.40
2019-03-10T05:41:16.815Z,3.07
2019-03-10T05:43:47.051Z,2.73
2019-03-10T05:46:17.178Z,2.60
2019-03-10T05:48:46.980Z,2.57
2019-03-10T05:51:16.945Z,2.63
2019-03-10T05:53:48.353Z,2.40
2019-03-10T05:56:18.122Z,2.20
2019-03-10T05:58:48.305Z,2.47
2019-03-10T06:01:18.523Z,2.37
2019-03-10T06:03:48.733Z,2.20
2019-03-10T06:06:19.636Z,2.23
2019-03-10T06:08:49.502Z,2.50
2019-03-10T06:11:19.892Z,2.40
2019-03-10T06:13:49.675Z,2.53
2019-03-10T06:16:19.532Z,1.97
2019-03-10T06:18:50.571Z,2.37
2019-03-10T06:21:20.858Z,2.00
2019-03-10T06:23:50.674Z,2.73
2019-03-10T06:26:20.892Z,2.73
2019-03-10T06:28:51.153Z,3.00
2019-03-10T06:31:20.973Z,2.60
2019-03-10T06:33:50.926Z,2.33
2019-03-10T06:36:22.353Z,1.90
2019-03-10T06:38:55.115Z,2.40
2019-03-10T06:41:24.486Z,2.30
2019-03-10T06:43:54.421Z,2.47
2019-03-10T06:46:24.627Z,2.03
2019-03-10T06:48:54.477Z,1.80
2019-03-10T06:51:24.596Z,2.20
2019-03-10T06:53:54.521Z,2.27
2019-03-10T06:56:24.709Z,2.13
2019-03-10T06:58:54.573Z,2.47
2019-03-10T07:01:24.527Z,2.40
2019-03-10T07:03:55.527Z,2.77
2019-03-10T07:06:25.407Z,2.43
2019-03-10T07:08:55.611Z,2.53
2019-03-10T07:11:25.845Z,2.63
2019-03-10T07:13:55.724Z,2.43
2019-03-10T07:16:25.673Z,2.77
2019-03-10T07:18:55.482Z,2.47
2019-03-10T07:21:25.443Z,3.00
2019-03-10T07:23:55.679Z,2.40
2019-03-10T07:26:25.747Z,2.40
2019-03-10T07:29:14.521Z,2.20
2019-03-10T07:31:48.790Z,2.83
2019-03-10T07:34:36.510Z,2.70
2019-03-10T07:37:18.487Z,2.93
2019-03-10T07:40:25.896Z,2.67
2019-03-10T07:43:06.438Z,2.00
2019-03-10T07:46:01.274Z,3.60
2019-03-10T07:49:00.327Z,4.77
2019-03-10T07:51:49.314Z,4.30
2019-03-10T07:54:38.528Z,5.07
2019-03-10T07:57:17.200Z,5.43
2019-03-10T08:00:05.222Z,4.17
2019-03-10T08:02:45.546Z,4.83
2019-03-10T08:05:25.036Z,3.93
2019-03-10T08:08:11.552Z,4.23
2019-03-10T08:10:59.677Z,4.37
2019-03-10T08:13:57.685Z,5.00
2019-03-10T08:16:38.724Z,4.20
2019-03-10T08:19:34.172Z,4.80
2019-03-10T08:22:23.103Z,4.10
2019-03-10T08:25:14.099Z,3.30
2019-03-10T08:28:01.666Z,5.30
2019-03-10T08:30:53.964Z,4.00
2019-03-10T08:33:41.598Z,4.23
2019-03-10T08:36:24.129Z,4.10
2019-03-10T08:39:07.531Z,3.43
2019-03-10T08:41:50.276Z,3.90
2019-03-10T08:44:33.983Z,3.40
2019-03-10T08:47:26.172Z,4.07
2019-03-10T08:50:13.862Z,3.50
2019-03-10T08:52:55.866Z,3.13
2019-03-10T08:55:33.554Z,2.80
2019-03-10T08:58:22.500Z,3.50
2019-03-10T09:01:10.539Z,3.30
2019-03-10T09:04:11.881Z,3.23
2019-03-10T09:06:59.370Z,2.73
2019-03-10T09:09:51.047Z,3.00
2019-03-10T09:12:27.217Z,3.10
2019-03-10T09:15:07.055Z,2.70
2019-03-10T09:17:54.798Z,3.40
2019-03-10T09:20:50.324Z,2.93
2019-03-10T09:23:28.595Z,2.70
2019-03-10T09:26:33.048Z,2.63
2019-03-10T09:29:20.683Z,1.60
2019-03-10T09:32:12.302Z,1.57
2019-03-10T09:34:48.983Z,1.50
2019-03-10T09:37:24.923Z,1.40
2019-03-10T09:40:05.286Z,1.30
2019-03-10T09:43:01.968Z,1.47
2019-03-10T09:46:00.274Z,1.70
2019-03-10T09:49:01.190Z,1.20
2019-03-10T09:51:43.476Z,1.50
2019-03-10T09:54:31.319Z,1.70
2019-03-10T09:57:09.552Z,1.20
2019-03-10T09:59:58.539Z,1.40
2019-03-10T10:02:46.539Z,1.60
2019-03-10T10:05:21.836Z,1.10
2019-03-10T10:08:02.097Z,1.73
2019-03-10T10:10:50.039Z,1.83
2019-03-10T10:13:32.356Z,1.40
2019-03-10T10:16:22.751Z,1.90
2019-03-10T10:19:11.821Z,1.47
2019-03-10T10:21:55.632Z,1.47
2019-03-10T10:24:47.573Z,1.80
2019-03-10T10:27:46.440Z,2.33
2019-03-10T10:30:38.515Z,2.13
2019-03-10T10:33:13.880Z,2.27
2019-03-10T10:36:02.775Z,2.60
2019-03-10T10:39:01.157Z,2.47
2019-03-10T10:41:53.466Z,2.67
2019-03-10T10:44:45.171Z,2.37
2019-03-10T10:47:34.537Z,2.60
2019-03-10T10:50:13.933Z,3.30
2019-03-10T10:53:01.826Z,3.00
2019-03-10T10:55:58.482Z,3.13
2019-03-10T10:58:57.124Z,2.80
2019-03-10T11:01:52.579Z,2.33
2019-03-10T11:04:53.914Z,2.67
2019-03-10T11:07:42.843Z,2.07
2019-03-10T11:10:30.069Z,2.30
2019-03-10T11:13:37.517Z,3.20
2019-03-10T11:16:22.743Z,2.63
2019-03-10T11:19:12.366Z,1.93
2019-03-10T11:21:58.608Z,2.47
2019-03-10T11:24:52.678Z,2.23
2019-03-10T11:27:47.969Z,3.27
2019-03-10T11:30:37.751Z,3.37
2019-03-10T11:33:27.602Z,2.63
2019-03-10T11:36:15.840Z,2.93
2019-03-10T11:39:20.576Z,2.90
2019-03-10T11:42:08.395Z,2.90
2019-03-10T11:44:49.912Z,4.37
2019-03-10T11:47:45.901Z,4.07
2019-03-10T11:50:45.276Z,3.50
2019-03-10T11:53:21.457Z,3.90
2019-03-10T11:56:04.145Z,4.93
2019-03-10T11:58:46.637Z,4.33
2019-03-10T12:01:54.898Z,4.80
2019-03-10T12:04:35.762Z,4.60
2019-03-10T12:07:24.810Z,3.73
2019-03-10T12:09:54.888Z,3.20
2019-03-10T12:12:25.197Z,3.37
2019-03-10T12:14:56.441Z,3.70
2019-03-10T12:17:26.380Z,3.77
2019-03-10T12:19:56.189Z,4.57
2019-03-10T12:22:26.064Z,3.53
2019-03-10T12:24:55.912Z,3.93
2019-03-10T12:27:26.122Z,4.13
2019-03-10T12:29:56.013Z,3.57
2019-03-10T12:32:26.269Z,4.50
2019-03-10T12:34:57.757Z,3.33
2019-03-10T12:37:27.728Z,4.00
2019-03-10T12:39:57.633Z,3.60
2019-03-10T12:42:27.688Z,3.10
2019-03-10T12:44:59.343Z,3.10
2019-03-10T12:47:29.303Z,3.07
2019-03-10T12:49:59.592Z,2.90
2019-03-10T12:52:29.443Z,2.10
2019-03-10T12:54:59.286Z,3.80
2019-03-10T12:57:29.203Z,2.97
2019-03-10T12:59:59.164Z,2.90
2019-03-10T13:02:28.946Z,3.10
2019-03-10T13:04:58.894Z,3.17
2019-03-10T13:07:28.822Z,3.40
2019-03-10T13:09:58.774Z,3.30
2019-03-10T13:12:28.653Z,3.10
2019-03-10T13:14:59.915Z,2.97
2019-03-10T13:17:29.886Z,3.27
2019-03-10T13:20:00.275Z,3.47
2019-03-10T13:22:30.107Z,3.33
2019-03-10T13:24:59.985Z,3.20
2019-03-10T13:27:29.924Z,2.90
2019-03-10T13:30:01.932Z,3.60
2019-03-10T13:32:32.463Z,2.50
2019-03-10T13:35:02.416Z,2.70
2019-03-10T13:37:32.632Z,2.70
2019-03-10T13:40:02.976Z,2.60
2019-03-10T13:42:34.336Z,3.40
2019-03-10T13:45:04.531Z,3.13
2019-03-10T13:47:34.404Z,2.53
2019-03-10T13:50:04.930Z,3.00
2019-03-10T13:52:34.802Z,3.07
2019-03-10T13:55:08.027Z,2.23
2019-03-10T13:57:38.929Z,2.87
2019-03-10T14:00:11.497Z,1.57
2019-03-10T14:02:41.459Z,1.40
2019-03-10T14:05:11.716Z,1.37
2019-03-10T14:07:41.828Z,1.30
2019-03-10T14:10:12.164Z,1.10
2019-03-10T14:12:42.192Z,0.80
2019-03-10T14:15:12.139Z,0.70
2019-03-10T14:17:42.074Z,0.70
2019-03-10T14:20:12.011Z,0.80
2019-03-10T14:22:42.061Z,0.80
2019-03-10T14:25:12.704Z,0.70
2019-03-10T14:27:43.098Z,0.90
2019-03-10T14:30:13.771Z,1.30
2019-03-10T14:32:43.813Z,0.90
2019-03-10T14:35:14.840Z,1.30
2019-03-10T14:37:45.094Z,1.67
2019-03-10T14:40:19.476Z,1.63
2019-03-10T14:42:49.418Z,0.90
2019-03-10T14:45:19.901Z,0.90
2019-03-10T14:47:50.014Z,1.20
2019-03-10T14:50:42.735Z,1.17
2019-03-10T14:53:12.706Z,1.37
2019-03-10T14:55:42.801Z,1.13
2019-03-10T14:58:13.710Z,1.07
2019-03-10T15:00:43.721Z,0.90
2019-03-10T15:03:13.695Z,1.50
2019-03-10T15:05:43.469Z,1.03
2019-03-10T15:08:13.418Z,1.50
2019-03-10T15:10:43.356Z,1.20
2019-03-10T15:13:13.297Z,1.87
2019-03-10T15:15:43.236Z,1.30
2019-03-10T15:18:13.100Z,1.07
2019-03-10T15:20:42.868Z,1.37
2019-03-10T15:23:13.090Z,1.50
2019-03-10T15:25:42.932Z,1.30
2019-03-10T15:28:13.190Z,1.40
2019-03-10T15:30:43.114Z,1.10
2019-03-10T15:33:13.121Z,1.23
2019-03-10T15:35:42.925Z,1.23
2019-03-10T15:38:12.790Z,1.13
2019-03-10T15:40:42.664Z,1.37
2019-03-10T15:43:13.597Z,1.20
2019-03-10T15:45:43.540Z,1.20
2019-03-10T15:48:13.634Z,1.20
2019-03-10T15:50:43.582Z,0.87
2019-03-10T15:53:13.564Z,1.20
2019-03-10T15:55:43.360Z,1.27
2019-03-10T15:58:13.396Z,0.67
2019-03-10T16:00:43.319Z,1.33
2019-03-10T16:03:13.634Z,1.00
2019-03-10T16:05:43.501Z,0.90
2019-03-10T16:08:13.451Z,0.90
2019-03-10T16:10:44.994Z,0.70
2019-03-10T16:13:15.265Z,0.80
2019-03-10T16:15:45.115Z,0.90
2019-03-10T16:18:15.580Z,1.20
2019-03-10T16:20:45.459Z,0.90
2019-03-10T16:23:15.743Z,1.67
2019-03-10T16:25:45.645Z,1.17
2019-03-10T16:28:15.673Z,0.77
2019-03-10T16:30:45.662Z,0.80
2019-03-10T16:33:18.932Z,1.00
2019-03-10T16:35:50.488Z,0.70
2019-03-10T16:38:21.768Z,0.80
2019-03-10T16:40:51.611Z,0.90
2019-03-10T16:43:21.413Z,0.80
2019-03-10T16:45:52.139Z,0.93
2019-03-10T16:48:22.489Z,0.93
2019-03-10T16:50:52.695Z,0.70
2019-03-10T16:53:22.639Z,0.53
2019-03-10T16:56:02.483Z,0.67
2019-03-10T16:58:24.105Z,0.60
2019-03-10T17:00:54.061Z,0.90
2019-03-10T17:03:23.982Z,0.73
2019-03-10T17:05:53.986Z,0.57
2019-03-10T17:08:23.811Z,0.97
2019-03-10T17:10:53.745Z,0.80
2019-03-10T17:13:23.647Z,0.80
2019-03-10T17:15:53.602Z,0.83
2019-03-10T17:18:23.534Z,0.93
2019-03-10T17:20:53.882Z,0.63
2019-03-10T17:23:23.802Z,0.73
2019-03-10T17:25:55.181Z,0.80
2019-03-10T17:28:25.105Z,0.83
2019-03-10T17:30:55.588Z,0.77
2019-03-10T17:33:25.541Z,0.87
2019-03-10T17:35:55.410Z,0.70
2019-03-10T17:38:25.635Z,0.90
2019-03-10T17:40:55.497Z,1.07
2019-03-10T17:43:30.404Z,1.20
2019-03-10T17:46:00.694Z,0.90
2019-03-10T17:48:30.954Z,0.90
2019-03-10T17:51:01.254Z,1.53
2019-03-10T17:53:31.289Z,1.13
2019-03-10T17:56:01.655Z,0.90
2019-03-10T17:58:34.023Z,1.50
2019-03-10T18:01:03.704Z,1.30
2019-03-10T18:03:33.609Z,1.00
2019-03-10T18:06:03.916Z,1.30
2019-03-10T18:08:34.490Z,1.43
2019-03-10T18:11:04.408Z,1.30
2019-03-10T18:13:34.684Z,1.00
2019-03-10T18:16:04.570Z,1.20
2019-03-10T18:18:34.414Z,0.80
2019-03-10T18:21:04.352Z,1.10
2019-03-10T18:23:34.228Z,1.03
2019-03-10T18:26:04.155Z,1.13
2019-03-10T18:28:33.947Z,1.33
2019-03-10T18:31:03.784Z,1.23
2019-03-10T18:33:33.995Z,1.13
2019-03-10T18:36:03.863Z,1.10
2019-03-10T18:38:34.219Z,1.13
2019-03-10T18:41:04.146Z,1.00
2019-03-10T18:43:34.043Z,1.30
2019-03-10T18:46:03.982Z,1.00
2019-03-10T18:48:34.176Z,1.67
2019-03-10T18:51:04.315Z,1.50
2019-03-10T18:53:34.265Z,1.30
2019-03-10T18:56:04.217Z,1.67
2019-03-10T18:58:34.092Z,1.20
2019-03-10T19:01:04.818Z,1.10
2019-03-10T19:03:35.041Z,1.40
2019-03-10T19:06:04.989Z,1.30
2019-03-10T19:08:35.376Z,1.00
2019-03-10T19:11:05.578Z,1.40
2019-03-10T19:13:35.451Z,1.30
2019-03-10T19:16:05.773Z,1.37
2019-03-10T19:18:35.737Z,1.30
2019-03-10T19:21:06.994Z,1.50
2019-03-10T19:23:37.016Z,1.37
2019-03-10T19:26:06.974Z,1.00
2019-03-10T19:28:36.886Z,1.20
2019-03-10T19:31:06.887Z,1.43
2019-03-10T19:33:37.320Z,1.50
2019-03-10T19:36:07.547Z,1.50
2019-03-10T19:38:37.506Z,1.43
2019-03-10T19:41:07.376Z,1.73
2019-03-10T19:43:37.760Z,1.37
2019-03-10T19:46:07.616Z,1.10
2019-03-10T19:48:37.671Z,1.40
2019-03-10T19:51:08.520Z,1.00
2019-03-10T19:53:38.541Z,1.10
2019-03-10T19:56:08.452Z,1.37
2019-03-10T19:58:38.445Z,1.00
2019-03-10T20:01:08.390Z,0.70
2019-03-10T20:03:38.555Z,0.90
2019-03-10T20:06:08.504Z,0.77
2019-03-10T20:08:38.483Z,1.10
2019-03-10T20:11:08.648Z,0.87
2019-03-10T20:13:38.606Z,1.10
2019-03-10T20:16:08.460Z,1.43
2019-03-10T20:18:38.953Z,1.10
2019-03-10T20:21:09.469Z,1.30
2019-03-10T20:23:40.697Z,1.17
2019-03-10T20:26:10.743Z,1.10
2019-03-10T20:28:41.067Z,1.10
2019-03-10T20:31:11.084Z,0.87
2019-03-10T20:33:40.927Z,1.00
2019-03-10T20:36:11.214Z,1.37
2019-03-10T20:38:41.260Z,1.20
2019-03-10T20:41:11.480Z,1.80
2019-03-10T20:43:41.470Z,1.50
2019-03-10T20:46:11.422Z,1.33
2019-03-10T20:48:41.436Z,1.40
2019-03-10T20:51:13.195Z,1.50
2019-03-10T20:53:43.224Z,1.50
2019-03-10T20:56:13.551Z,1.30
2019-03-10T20:58:43.528Z,1.67
2019-03-10T21:01:13.819Z,1.20
2019-03-10T21:03:43.805Z,1.20
2019-03-10T21:06:14.219Z,0.97
2019-03-10T21:08:44.153Z,1.10
2019-03-10T21:11:14.113Z,1.23
2019-03-10T21:13:43.965Z,0.77
2019-03-10T21:16:18.317Z,1.37
2019-03-10T21:18:48.510Z,1.03
2019-03-10T21:21:18.435Z,1.50
2019-03-10T21:23:48.755Z,1.20
2019-03-10T21:26:19.111Z,1.10
2019-03-10T21:28:48.982Z,1.53
2019-03-10T21:31:19.344Z,1.10
2019-03-10T21:33:49.200Z,1.33
2019-03-10T21:36:20.349Z,1.10
2019-03-10T21:38:50.484Z,1.20
2019-03-10T21:41:23.662Z,1.20
2019-03-10T21:43:55.053Z,1.10
2019-03-10T21:46:25.151Z,1.17
2019-03-10T21:48:55.376Z,1.73
2019-03-10T21:51:25.345Z,1.50
2019-03-10T21:54:02.880Z,1.37
2019-03-10T21:56:28.055Z,1.70
2019-03-10T21:58:58.123Z,1.80
2019-03-10T22:01:29.043Z,1.83
2019-03-10T22:03:59.179Z,1.97
2019-03-10T22:06:29.198Z,1.60
2019-03-10T22:08:59.483Z,1.80
2019-03-10T22:11:29.396Z,1.80
2019-03-10T22:14:00.561Z,1.83
2019-03-10T22:16:30.777Z,1.80
2019-03-10T22:19:00.721Z,1.80
2019-03-10T22:21:30.837Z,2.13
2019-03-10T22:24:03.134Z,1.80
2019-03-10T22:26:33.085Z,2.20
2019-03-10T22:29:04.237Z,2.17
2019-03-10T22:31:34.329Z,2.13
2019-03-10T22:34:04.420Z,2.00
2019-03-10T22:36:34.434Z,2.20
2019-03-10T22:39:05.194Z,2.30
2019-03-10T22:41:35.522Z,2.17
2019-03-10T22:44:05.730Z,2.20
2019-03-10T22:46:35.913Z,2.23
2019-03-10T22:49:06.165Z,1.70
2019-03-10T22:51:36.021Z,1.70
2019-03-10T22:54:06.032Z,2.00
2019-03-10T22:56:36.045Z,2.07
2019-03-10T22:59:07.274Z,1.83
2019-03-10T23:01:37.236Z,2.10
2019-03-10T23:04:07.179Z,1.87
2019-03-10T23:06:37.124Z,1.67
2019-03-10T23:09:08.532Z,2.03
2019-03-10T23:11:39.722Z,1.97
2019-03-10T23:14:09.672Z,2.00
2019-03-10T23:16:39.893Z,1.50
2019-03-10T23:19:09.820Z,1.57
2019-03-10T23:21:39.743Z,1.97
2019-03-10T23:24:09.577Z,1.83
2019-03-10T23:26:40.445Z,2.07
2019-03-10T23:29:10.408Z,2.23
2019-03-10T23:31:42.242Z,2.67
2019-03-10T23:34:12.248Z,2.37
2019-03-10T23:36:42.441Z,1.93
2019-03-10T23:39:12.382Z,2.90
2019-03-10T23:41:43.005Z,1.73
2019-03-10T23:44:12.950Z,2.30
2019-03-10T23:46:42.815Z,2.07
2019-03-10T23:49:13.208Z,2.43
2019-03-10T23:51:43.286Z,2.07
2019-03-10T23:54:13.145Z,2.37
2019-03-10T23:56:44.178Z,2.33
2019-03-10T23:59:15.030Z,2.30
